createdAt,value
2018-11-05T00:01:43.063Z,9.17
2018-11-05T00:04:12.933Z,7.10
2018-11-05T00:06:43.057Z,8.80
2018-11-05T00:09:13.519Z,9.50
2018-11-05T00:11:56.346Z,6.00
2018-11-05T00:14:26.170Z,9.70
2018-11-05T00:16:56.019Z,7.57
2018-11-05T00:19:25.794Z,7.63
2018-11-05T00:21:55.617Z,10.27
2018-11-05T00:24:25.422Z,7.97
2018-11-05T00:26:55.191Z,9.77
2018-11-05T00:29:24.942Z,5.73
2018-11-05T00:31:54.775Z,7.67
2018-11-05T00:34:24.580Z,10.73
2018-11-05T00:36:54.440Z,8.13
2018-11-05T00:39:24.245Z,7.00
2018-11-05T00:41:54.057Z,5.37
2018-11-05T00:44:23.810Z,7.53
2018-11-05T00:46:54.295Z,7.13
2018-11-05T00:49:24.163Z,5.53
2018-11-05T00:51:54.042Z,9.13
2018-11-05T00:54:23.889Z,6.30
2018-11-05T00:56:53.761Z,8.13
2018-11-05T00:59:23.549Z,5.93
2018-11-05T01:01:53.404Z,7.17
2018-11-05T01:04:23.140Z,10.63
2018-11-05T01:06:53.477Z,5.13
2018-11-05T01:09:23.257Z,5.73
2018-11-05T01:11:53.426Z,7.60
2018-11-05T01:14:23.223Z,10.77
2018-11-05T01:16:53.139Z,6.23
2018-11-05T01:19:22.934Z,7.03
2018-11-05T01:21:53.125Z,9.77
2018-11-05T01:24:22.899Z,6.17
2018-11-05T01:26:53.054Z,7.20
2018-11-05T01:29:22.985Z,6.03
2018-11-05T01:31:53.068Z,12.53
2018-11-05T01:34:22.874Z,11.47
2018-11-05T01:36:53.581Z,6.97
2018-11-05T01:39:23.388Z,7.20
2018-11-05T01:41:53.247Z,8.87
2018-11-05T01:44:23.016Z,9.57
2018-11-05T01:46:53.030Z,9.53
2018-11-05T01:49:22.934Z,5.07
2018-11-05T01:51:52.967Z,8.23
2018-11-05T01:54:22.997Z,10.40
2018-11-05T01:56:53.001Z,10.27
2018-11-05T01:59:22.834Z,7.53
2018-11-05T02:01:52.986Z,13.70
2018-11-05T02:04:22.819Z,7.40
2018-11-05T02:06:53.031Z,7.17
2018-11-05T02:09:22.911Z,11.53
2018-11-05T02:11:52.818Z,8.97
2018-11-05T02:14:22.597Z,5.47
2018-11-05T02:16:52.418Z,9.63
2018-11-05T02:19:22.263Z,7.43
2018-11-05T02:21:52.118Z,8.60
2018-11-05T02:24:21.999Z,7.27
2018-11-05T02:26:51.896Z,7.43
2018-11-05T02:29:21.728Z,7.23
2018-11-05T02:31:51.476Z,5.37
2018-11-05T02:34:21.342Z,10.00
2018-11-05T02:36:51.107Z,6.63
2018-11-05T02:39:20.977Z,7.53
2018-11-05T02:41:50.754Z,7.07
2018-11-05T02:44:20.565Z,8.10
2018-11-05T02:46:50.346Z,9.57
2018-11-05T02:49:20.135Z,6.83
2018-11-05T02:51:49.910Z,7.30
2018-11-05T02:54:19.703Z,7.83
2018-11-05T02:56:49.606Z,6.10
2018-11-05T02:59:19.750Z,7.87
2018-11-05T03:01:49.537Z,5.57
2018-11-05T03:04:19.369Z,8.37
2018-11-05T03:06:49.174Z,11.47
2018-11-05T03:09:18.990Z,9.70
2018-11-05T03:11:48.810Z,10.10
2018-11-05T03:14:18.623Z,7.60
2018-11-05T03:16:48.421Z,11.13
2018-11-05T03:19:18.451Z,12.50
2018-11-05T03:21:48.344Z,8.77
2018-11-05T03:24:18.186Z,7.60
2018-11-05T03:26:47.955Z,9.07
2018-11-05T03:29:17.730Z,6.47
2018-11-05T03:31:47.494Z,7.17
2018-11-05T03:34:17.334Z,6.97
2018-11-05T03:36:47.119Z,13.33
2018-11-05T03:39:17.324Z,11.97
2018-11-05T03:41:47.170Z,12.57
2018-11-05T03:44:16.991Z,11.17
2018-11-05T03:46:46.780Z,8.17
2018-11-05T03:49:16.986Z,15.23
2018-11-05T03:51:46.946Z,12.27
2018-11-05T03:54:16.745Z,12.77
2018-11-05T03:56:47.677Z,13.50
2018-11-05T03:59:17.387Z,11.50
2018-11-05T04:01:47.189Z,13.23
2018-11-05T04:04:17.037Z,16.63
2018-11-05T04:06:46.834Z,11.90
2018-11-05T04:09:16.651Z,13.43
2018-11-05T04:11:46.454Z,13.07
2018-11-05T04:14:16.224Z,9.83
2018-11-05T04:16:46.075Z,13.00
2018-11-05T04:19:15.969Z,12.27
2018-11-05T04:21:46.175Z,10.53
2018-11-05T04:24:16.412Z,11.13
2018-11-05T04:26:46.722Z,11.57
2018-11-05T04:29:16.579Z,14.63
2018-11-05T04:31:46.891Z,15.63
2018-11-05T04:34:16.737Z,14.97
2018-11-05T04:36:46.690Z,12.60
2018-11-05T04:39:16.933Z,14.10
2018-11-05T04:41:46.842Z,15.37
2018-11-05T04:44:16.692Z,14.70
2018-11-05T04:46:46.490Z,15.20
2018-11-05T04:49:16.738Z,13.87
2018-11-05T04:51:46.566Z,14.67
2018-11-05T04:54:18.407Z,15.53
2018-11-05T04:56:50.164Z,16.97
2018-11-05T04:59:22.780Z,15.43
2018-11-05T05:01:53.698Z,15.17
2018-11-05T05:04:25.913Z,15.13
2018-11-05T05:06:57.373Z,20.43
2018-11-05T05:09:28.771Z,17.60
2018-11-05T05:12:00.831Z,13.77
2018-11-05T05:14:32.392Z,14.30
2018-11-05T05:17:04.232Z,16.73
2018-11-05T05:19:35.063Z,13.43
2018-11-05T05:22:07.354Z,14.30
2018-11-05T05:24:38.812Z,10.33
2018-11-05T05:27:10.607Z,13.13
2018-11-05T05:29:42.537Z,13.77
2018-11-05T05:32:14.091Z,11.67
2018-11-05T05:34:46.768Z,14.23
2018-11-05T05:37:16.564Z,12.87
2018-11-05T05:39:46.800Z,13.57
2018-11-05T05:42:16.612Z,11.60
2018-11-05T05:44:46.615Z,9.93
2018-11-05T05:47:16.574Z,11.03
2018-11-05T05:49:47.835Z,10.43
2018-11-05T05:52:17.626Z,9.20
2018-11-05T05:54:47.786Z,10.00
2018-11-05T05:57:19.018Z,9.50
2018-11-05T05:59:48.945Z,10.30
2018-11-05T06:02:18.822Z,8.97
2018-11-05T06:04:48.815Z,9.93
2018-11-05T06:07:18.619Z,15.07
2018-11-05T06:09:49.108Z,9.47
2018-11-05T06:12:19.460Z,9.77
2018-11-05T06:14:49.459Z,7.23
2018-11-05T06:17:21.300Z,8.17
2018-11-05T06:19:53.295Z,9.67
2018-11-05T06:22:25.928Z,12.37
2018-11-05T06:24:58.507Z,9.00
2018-11-05T06:27:30.861Z,9.77
2018-11-05T06:30:01.999Z,10.50
2018-11-05T06:32:34.578Z,9.43
2018-11-05T06:35:07.070Z,9.33
2018-11-05T06:37:39.604Z,9.37
2018-11-05T06:40:13.765Z,9.77
2018-11-05T06:42:46.909Z,7.87
2018-11-05T06:45:20.452Z,8.57
2018-11-05T06:47:52.408Z,10.47
2018-11-05T06:50:25.695Z,7.60
2018-11-05T06:52:57.087Z,9.17
2018-11-05T06:55:29.644Z,9.53
2018-11-05T06:58:01.856Z,9.73
2018-11-05T07:00:33.838Z,10.90
2018-11-05T07:03:05.210Z,12.70
2018-11-05T07:05:37.118Z,9.60
2018-11-05T07:08:09.949Z,10.33
2018-11-05T07:10:41.345Z,10.33
2018-11-05T07:13:12.576Z,9.20
2018-11-05T07:15:43.959Z,9.97
2018-11-05T07:18:15.094Z,12.37
2018-11-05T07:20:48.669Z,10.30
2018-11-05T07:23:20.918Z,9.33
2018-11-05T07:25:53.181Z,14.77
2018-11-05T07:28:24.843Z,11.70
2018-11-05T07:30:56.332Z,9.97
2018-11-05T07:33:28.267Z,8.47
2018-11-05T07:36:01.117Z,8.47
2018-11-05T07:38:32.537Z,8.70
2018-11-05T07:41:04.010Z,10.87
2018-11-05T07:43:34.833Z,13.50
2018-11-05T07:46:05.495Z,9.90
2018-11-05T07:48:37.011Z,9.83
2018-11-05T07:51:08.511Z,10.40
2018-11-05T07:53:39.953Z,10.20
2018-11-05T07:56:11.105Z,10.17
2018-11-05T07:58:42.761Z,10.73
2018-11-05T08:01:18.302Z,7.17
2018-11-05T08:03:48.362Z,8.53
2018-11-05T08:06:18.158Z,16.10
2018-11-05T08:08:48.006Z,6.07
2018-11-05T08:11:17.946Z,7.37
2018-11-05T08:13:47.719Z,5.70
2018-11-05T08:16:17.561Z,6.93
2018-11-05T08:18:47.413Z,6.43
2018-11-05T08:21:17.258Z,7.70
2018-11-05T08:23:47.381Z,5.40
2018-11-05T08:26:17.183Z,8.10
2018-11-05T08:28:46.998Z,7.50
2018-11-05T08:31:16.795Z,6.33
2018-11-05T08:33:46.598Z,7.33
2018-11-05T08:36:16.898Z,6.43
2018-11-05T08:38:47.482Z,9.57
2018-11-05T08:41:17.315Z,9.47
2018-11-05T08:43:47.208Z,6.23
2018-11-05T08:46:17.426Z,6.77
2018-11-05T08:48:47.249Z,7.13
2018-11-05T08:51:17.312Z,7.07
2018-11-05T08:53:46.982Z,9.33
2018-11-05T08:56:16.812Z,8.13
2018-11-05T08:58:46.679Z,5.77
2018-11-05T09:01:16.566Z,4.47
2018-11-05T09:03:47.882Z,5.33
2018-11-05T09:06:18.650Z,6.63
2018-11-05T09:08:48.468Z,7.47
2018-11-05T09:11:18.894Z,8.20
2018-11-05T09:13:48.283Z,8.33
2018-11-05T09:16:18.380Z,6.87
2018-11-05T09:18:48.192Z,11.60
2018-11-05T09:21:18.194Z,6.87
2018-11-05T09:23:48.070Z,7.40
2018-11-05T09:26:17.935Z,13.53
2018-11-05T09:28:47.875Z,10.83
2018-11-05T09:31:18.611Z,18.00
2018-11-05T09:33:49.087Z,9.87
2018-11-05T09:36:18.919Z,8.37
2018-11-05T09:38:48.704Z,7.40
2018-11-05T09:41:18.556Z,9.40
2018-11-05T09:43:48.463Z,10.40
2018-11-05T09:46:18.380Z,7.70
2018-11-05T09:48:48.139Z,11.50
2018-11-05T09:51:17.958Z,9.50
2018-11-05T09:53:47.742Z,8.83
2018-11-05T09:56:17.621Z,9.13
2018-11-05T09:58:47.424Z,11.18
2018-11-05T10:01:17.253Z,12.88
2018-11-05T10:03:52.246Z,10.85
2018-11-05T10:06:22.971Z,10.03
2018-11-05T10:08:52.818Z,9.95
2018-11-05T10:11:23.674Z,13.00
2018-11-05T10:13:54.163Z,10.50
2018-11-05T10:16:24.016Z,13.28
2018-11-05T10:18:53.815Z,11.97
2018-11-05T10:21:23.626Z,12.00
2018-11-05T10:23:53.958Z,13.72
2018-11-05T10:26:25.190Z,13.18
2018-11-05T10:28:55.074Z,13.23
2018-11-05T10:31:25.778Z,16.50
2018-11-05T10:33:55.682Z,12.77
2018-11-05T10:36:25.761Z,14.73
2018-11-05T10:38:56.790Z,11.60
2018-11-05T10:41:26.635Z,12.93
2018-11-05T10:43:56.454Z,11.17
2018-11-05T10:46:26.345Z,12.33
2018-11-05T10:48:56.058Z,11.87
2018-11-05T10:51:26.185Z,10.70
2018-11-05T10:53:55.954Z,13.33
2018-11-05T10:56:25.761Z,10.90
2018-11-05T10:58:55.839Z,11.23
2018-11-05T11:01:31.348Z,14.93
2018-11-05T11:05:04.950Z,11.28
2018-11-05T11:07:34.803Z,14.58
2018-11-05T11:10:05.435Z,12.65
2018-11-05T11:12:35.277Z,14.78
2018-11-05T11:15:06.262Z,14.68
2018-11-05T11:17:36.275Z,12.50
2018-11-05T11:20:06.600Z,11.73
2018-11-05T11:22:36.518Z,10.58
2018-11-05T11:25:07.524Z,10.88
2018-11-05T11:27:37.620Z,13.55
2018-11-05T11:30:09.403Z,10.80
2018-11-05T11:32:39.421Z,9.38
2018-11-05T11:35:09.845Z,12.25
2018-11-05T11:37:39.935Z,14.95
2018-11-05T11:40:11.843Z,10.08
2018-11-05T11:42:42.426Z,9.53
2018-11-05T11:45:13.192Z,10.53
2018-11-05T11:47:43.061Z,13.20
2018-11-05T11:50:14.037Z,9.18
2018-11-05T11:52:44.016Z,10.15
2018-11-05T11:55:18.520Z,9.43
2018-11-05T11:57:48.528Z,12.18
2018-11-05T12:00:23.178Z,10.68
2018-11-05T12:02:58.596Z,9.98
2018-11-05T12:05:28.725Z,10.60
2018-11-05T12:07:58.699Z,9.60
2018-11-05T12:10:28.698Z,10.15
2018-11-05T12:12:58.618Z,8.53
2018-11-05T12:15:29.019Z,7.53
2018-11-05T12:17:59.687Z,8.20
2018-11-05T12:20:29.531Z,10.48
2018-11-05T12:22:59.297Z,8.18
2018-11-05T12:25:29.074Z,9.35
2018-11-05T12:27:58.928Z,7.83
2018-11-05T12:30:28.701Z,7.37
2018-11-05T12:32:58.641Z,7.92
2018-11-05T12:35:28.418Z,7.78
2018-11-05T12:37:58.236Z,7.37
2018-11-05T12:40:28.080Z,9.13
2018-11-05T12:42:57.882Z,10.93
2018-11-05T12:45:27.715Z,8.18
2018-11-05T12:47:57.484Z,6.67
2018-11-05T12:50:27.357Z,7.22
2018-11-05T12:52:57.240Z,6.45
2018-11-05T12:55:27.050Z,6.85
2018-11-05T12:57:57.054Z,7.75
2018-11-05T13:00:26.798Z,6.15
2018-11-05T13:02:57.878Z,6.90
2018-11-05T13:05:28.694Z,8.68
2018-11-05T13:07:59.223Z,6.37
2018-11-05T13:10:29.109Z,7.22
2018-11-05T13:12:58.984Z,8.85
2018-11-05T13:15:29.113Z,7.05
2018-11-05T13:18:00.429Z,7.97
2018-11-05T13:20:30.288Z,7.12
2018-11-05T13:23:00.163Z,9.78
2018-11-05T13:25:29.998Z,10.72
2018-11-05T13:27:59.827Z,8.73
2018-11-05T13:30:29.626Z,8.35
2018-11-05T13:32:59.455Z,6.85
2018-11-05T13:35:29.703Z,7.65
2018-11-05T13:38:00.202Z,8.40
2018-11-05T13:40:29.591Z,6.65
2018-11-05T13:42:59.434Z,8.58
2018-11-05T13:45:29.497Z,7.80
2018-11-05T13:47:59.732Z,8.53
2018-11-05T13:50:30.120Z,7.22
2018-11-05T13:52:59.599Z,7.55
2018-11-05T13:55:29.436Z,8.95
2018-11-05T13:57:59.291Z,8.20
2018-11-05T14:00:29.404Z,9.45
2018-11-05T14:02:59.343Z,9.38
2018-11-05T14:05:29.227Z,8.63
2018-11-05T14:07:59.144Z,9.15
2018-11-05T14:10:28.907Z,7.37
2018-11-05T14:12:58.762Z,8.28
2018-11-05T14:15:28.519Z,7.85
2018-11-05T14:17:58.387Z,8.88
2018-11-05T14:20:28.531Z,7.28
2018-11-05T14:22:58.785Z,7.08
2018-11-05T14:25:28.627Z,7.20
2018-11-05T14:27:58.780Z,9.75
2018-11-05T14:30:28.382Z,9.95
2018-11-05T14:32:58.377Z,8.80
2018-11-05T14:35:28.302Z,7.42
2018-11-05T14:37:58.525Z,9.25
2018-11-05T14:40:29.703Z,9.15
2018-11-05T14:43:00.244Z,9.88
2018-11-05T14:45:30.111Z,10.08
2018-11-05T14:47:59.957Z,11.35
2018-11-05T14:50:29.966Z,11.65
2018-11-05T14:53:00.277Z,10.90
2018-11-05T14:55:30.055Z,11.75
2018-11-05T14:57:59.923Z,11.78
2018-11-05T15:00:29.769Z,12.58
2018-11-05T15:02:59.881Z,10.75
2018-11-05T15:05:29.787Z,10.40
2018-11-05T15:08:00.050Z,11.93
2018-11-05T15:10:29.844Z,9.10
2018-11-05T15:12:59.795Z,10.48
2018-11-05T15:15:29.947Z,11.03
2018-11-05T15:18:00.036Z,8.93
2018-11-05T15:20:29.880Z,7.90
2018-11-05T15:23:00.051Z,9.18
2018-11-05T15:25:29.911Z,11.30
2018-11-05T15:27:59.974Z,10.17
2018-11-05T15:30:29.776Z,9.47
2018-11-05T15:32:59.838Z,12.73
2018-11-05T15:35:30.157Z,10.40
2018-11-05T15:37:59.971Z,12.80
2018-11-05T15:40:29.959Z,16.53
2018-11-05T15:43:00.607Z,11.57
2018-11-05T15:45:32.743Z,11.87
2018-11-05T15:48:04.780Z,11.53
2018-11-05T15:50:38.957Z,9.17
2018-11-05T15:53:11.263Z,10.37
2018-11-05T15:55:42.686Z,10.43
2018-11-05T15:58:14.885Z,10.30
2018-11-05T16:00:47.101Z,12.73
2018-11-05T16:03:18.156Z,12.07
2018-11-05T16:05:51.676Z,14.80
2018-11-05T16:08:23.652Z,13.23
2018-11-05T16:10:54.399Z,14.23
2018-11-05T16:13:25.937Z,10.70
2018-11-05T16:15:58.780Z,11.70
2018-11-05T16:18:29.734Z,12.03
2018-11-05T16:20:59.593Z,11.90
2018-11-05T16:23:30.325Z,13.57
2018-11-05T16:26:00.319Z,15.07
2018-11-05T16:28:31.222Z,12.43
2018-11-05T16:31:01.131Z,13.17
2018-11-05T16:33:31.599Z,11.30
2018-11-05T16:36:01.581Z,11.50
2018-11-05T16:38:33.217Z,12.90
2018-11-05T16:41:03.127Z,17.30
2018-11-05T16:43:33.133Z,16.50
2018-11-05T16:46:03.082Z,16.53
2018-11-05T16:48:32.922Z,15.33
2018-11-05T16:51:02.766Z,17.23
2018-11-05T16:53:32.712Z,17.90
2018-11-05T16:56:02.567Z,29.53
2018-11-05T16:58:32.544Z,23.63
2018-11-05T17:01:04.516Z,17.07
2018-11-05T17:03:35.022Z,16.77
2018-11-05T17:06:05.388Z,16.57
2018-11-05T17:08:35.777Z,21.77
2018-11-05T17:11:06.724Z,23.27
2018-11-05T17:13:38.830Z,18.80
2018-11-05T17:16:09.056Z,58.83
2018-11-05T17:18:39.906Z,20.27
2018-11-05T17:21:10.677Z,17.13
2018-11-05T17:23:42.419Z,17.13
2018-11-05T17:26:13.106Z,17.17
2018-11-05T17:28:43.727Z,22.03
2018-11-05T17:31:15.177Z,20.63
2018-11-05T17:33:45.217Z,17.33
2018-11-05T17:36:14.942Z,18.60
2018-11-05T17:38:45.024Z,20.37
2018-11-05T17:41:14.814Z,22.77
2018-11-05T17:43:45.077Z,23.63
2018-11-05T17:46:15.342Z,21.03
2018-11-05T17:48:45.265Z,19.77
2018-11-05T17:51:15.139Z,18.50
2018-11-05T17:53:44.985Z,18.03
2018-11-05T17:56:14.895Z,20.13
2018-11-05T17:58:45.056Z,16.63
2018-11-05T18:01:14.904Z,16.47
2018-11-05T18:03:45.302Z,17.50
2018-11-05T18:06:15.996Z,20.80
2018-11-05T18:08:45.948Z,17.10
2018-11-05T18:11:16.335Z,19.77
2018-11-05T18:13:46.258Z,19.03
2018-11-05T18:16:16.612Z,20.57
2018-11-05T18:18:46.472Z,17.73
2018-11-05T18:21:16.379Z,18.13
2018-11-05T18:23:46.647Z,21.20
2018-11-05T18:26:16.543Z,19.73
2018-11-05T18:28:46.367Z,18.50
2018-11-05T18:31:16.322Z,19.93
2018-11-05T18:33:46.547Z,16.37
2018-11-05T18:36:16.534Z,17.63
2018-11-05T18:38:46.311Z,19.20
2018-11-05T18:41:16.187Z,18.03
2018-11-05T18:43:45.999Z,21.10
2018-11-05T18:46:15.866Z,20.97
2018-11-05T18:48:45.975Z,19.73
2018-11-05T18:51:15.831Z,18.60
2018-11-05T18:53:45.655Z,20.60
2018-11-05T18:56:15.794Z,18.60
2018-11-05T18:58:45.650Z,17.70
2018-11-05T19:01:16.006Z,12.83
2018-11-05T19:03:46.925Z,18.97
2018-11-05T19:06:17.172Z,20.13
2018-11-05T19:08:46.999Z,17.30
2018-11-05T19:11:16.835Z,13.57
2018-11-05T19:13:46.898Z,17.63
2018-11-05T19:16:22.364Z,13.00
2018-11-05T19:18:52.291Z,14.93
2018-11-05T19:21:22.175Z,16.53
2018-11-05T19:23:52.375Z,11.70
2018-11-05T19:26:22.411Z,15.17
2018-11-05T19:28:52.906Z,18.60
2018-11-05T19:31:22.817Z,15.07
2018-11-05T19:33:53.538Z,14.23
2018-11-05T19:36:23.318Z,14.07
2018-11-05T19:38:53.671Z,20.27
2018-11-05T19:41:23.942Z,16.60
2018-11-05T19:43:54.159Z,17.63
2018-11-05T19:46:25.083Z,18.20
2018-11-05T19:48:55.091Z,17.27
2018-11-05T19:51:25.121Z,16.83
2018-11-05T19:53:55.214Z,18.40
2018-11-05T19:56:25.365Z,15.80
2018-11-05T19:58:55.373Z,16.80
2018-11-05T20:01:25.780Z,18.27
2018-11-05T20:03:55.689Z,18.80
2018-11-05T20:06:25.654Z,25.97
2018-11-05T20:08:55.590Z,18.90
2018-11-05T20:11:25.598Z,26.70
2018-11-05T20:13:55.629Z,18.80
2018-11-05T20:16:25.555Z,17.67
2018-11-05T20:18:55.492Z,16.17
2018-11-05T20:21:25.432Z,16.40
2018-11-05T20:23:55.306Z,17.73
2018-11-05T20:26:25.319Z,11.20
2018-11-05T20:28:55.280Z,28.27
2018-11-05T20:31:25.377Z,14.57
2018-11-05T20:33:55.166Z,11.43
2018-11-05T20:36:25.339Z,11.83
2018-11-05T20:38:55.965Z,12.13
2018-11-05T20:41:26.035Z,9.40
2018-11-05T20:43:55.863Z,11.30
2018-11-05T20:46:25.779Z,13.33
2018-11-05T20:48:55.814Z,10.97
2018-11-05T20:51:25.823Z,12.03
2018-11-05T20:53:56.011Z,11.27
2018-11-05T20:56:25.875Z,9.37
2018-11-05T20:58:56.367Z,12.07
2018-11-05T21:01:26.273Z,13.93
2018-11-05T21:03:56.061Z,13.40
2018-11-05T21:06:26.112Z,10.93
2018-11-05T21:08:55.961Z,12.23
2018-11-05T21:11:25.763Z,13.27
2018-11-05T21:13:55.594Z,12.00
2018-11-05T21:16:25.433Z,12.43
2018-11-05T21:18:55.286Z,11.97
2018-11-05T21:21:25.774Z,12.20
2018-11-05T21:23:55.522Z,15.07
2018-11-05T21:26:25.394Z,14.80
2018-11-05T21:28:55.583Z,10.30
2018-11-05T21:31:25.555Z,12.67
2018-11-05T21:36:26.832Z,10.50
2018-11-05T21:38:56.689Z,11.97
2018-11-05T21:41:26.604Z,11.90
2018-11-05T21:43:56.475Z,10.40
2018-11-05T21:46:26.303Z,9.90
2018-11-05T21:48:56.112Z,10.73
2018-11-05T21:51:25.925Z,8.63
2018-11-05T21:53:55.824Z,9.37
2018-11-05T21:56:26.780Z,11.40
2018-11-05T21:58:56.727Z,11.47
2018-11-05T22:01:27.120Z,14.87
2018-11-05T22:03:56.964Z,23.23
2018-11-05T22:06:27.225Z,20.40
2018-11-05T22:08:57.085Z,13.03
2018-11-05T22:11:27.395Z,13.53
2018-11-05T22:13:57.204Z,10.40
2018-11-05T22:16:26.998Z,13.63
2018-11-05T22:18:56.870Z,14.67
2018-11-05T22:21:26.880Z,11.73
2018-11-05T22:23:57.197Z,13.70
2018-11-05T22:26:27.120Z,12.30
2018-11-05T22:28:57.001Z,10.93
2018-11-05T22:31:26.903Z,12.47
2018-11-05T22:33:57.251Z,10.47
2018-11-05T22:36:27.226Z,11.47
2018-11-05T22:38:57.826Z,11.13
2018-11-05T22:41:27.657Z,12.10
2018-11-05T22:43:57.462Z,9.60
2018-11-05T22:46:27.462Z,14.07
2018-11-05T22:48:57.291Z,12.20
2018-11-05T22:51:27.303Z,12.30
2018-11-05T22:53:57.853Z,11.77
2018-11-05T22:56:27.822Z,12.30
2018-11-05T22:58:57.847Z,13.13
2018-11-05T23:01:33.130Z,10.30
2018-11-05T23:04:03.542Z,8.73
2018-11-05T23:06:33.790Z,10.07
2018-11-05T23:09:05.358Z,11.37
2018-11-05T23:11:35.195Z,10.73
2018-11-05T23:14:05.499Z,11.60
2018-11-05T23:16:35.340Z,9.47
2018-11-05T23:19:06.073Z,12.73
2018-11-05T23:21:35.873Z,13.60
2018-11-05T23:24:05.957Z,13.23
2018-11-05T23:26:35.814Z,10.77
2018-11-05T23:29:06.307Z,11.80
2018-11-05T23:31:36.195Z,9.63
2018-11-05T23:34:06.056Z,9.33
2018-11-05T23:36:35.938Z,10.37
2018-11-05T23:39:08.495Z,10.87
2018-11-05T23:41:38.343Z,10.30
2018-11-05T23:44:08.113Z,10.37
2018-11-05T23:46:37.901Z,8.13
2018-11-05T23:49:07.699Z,9.40
2018-11-05T23:51:37.535Z,10.43
2018-11-05T23:54:07.314Z,9.13
2018-11-05T23:56:37.145Z,11.37
2018-11-05T23:59:06.906Z,10.47
